sensor_id;sensor_type;location;lat;lon;timestamp;P1;durP1;ratioP1;P2;durP2;ratioP2
2620;SDS011;1320;48.128;11.592;2023-05-10T00:00:43;2.97;;;1.60;;
2620;SDS011;1320;48.128;11.592;2023-05-10T00:03:09;4.07;;;2.17;;
2620;SDS011;1320;48.128;11.592;2023-05-10T00:05:35;4.63;;;2.07;;
2620;SDS011;1320;48.128;11.592;2023-05-10T00:08:00;2.93;;;1.27;;
2620;SDS011;1320;48.128;11.592;2023-05-10T00:10:26;3.50;;;1.50;;
2620;SDS011;1320;48.128;11.592;2023-05-10T00:12:52;4.03;;;1.60;;
2620;SDS011;1320;48.128;11.592;2023-05-10T00:15:17;3.27;;;1.30;;
2620;SDS011;1320;48.128;11.592;2023-05-10T00:17:43;5.20;;;1.80;;
2620;SDS011;1320;48.128;11.592;2023-05-10T00:20:09;3.60;;;1.70;;
2620;SDS011;1320;48.128;11.592;2023-05-10T00:22:35;4.07;;;1.80;;
2620;SDS011;1320;48.128;11.592;2023-05-10T00:25:01;3.77;;;1.60;;
2620;SDS011;1320;48.128;11.592;2023-05-10T00:27:26;3.10;;;1.27;;
2620;SDS011;1320;48.128;11.592;2023-05-10T00:29:52;3.20;;;1.30;;
2620;SDS011;1320;48.128;11.592;2023-05-10T00:32:17;3.13;;;1.40;;
2620;SDS011;1320;48.128;11.592;2023-05-10T00:34:43;3.07;;;1.23;;
2620;SDS011;1320;48.128;11.592;2023-05-10T00:37:09;3.33;;;1.77;;
2620;SDS011;1320;48.128;11.592;2023-05-10T00:39:34;4.20;;;2.30;;
2620;SDS011;1320;48.128;11.592;2023-05-10T00:42:00;4.40;;;2.90;;
2620;SDS011;1320;48.128;11.592;2023-05-10T00:44:26;4.87;;;2.60;;
2620;SDS011;1320;48.128;11.592;2023-05-10T00:46:51;3.80;;;1.27;;
2620;SDS011;1320;48.128;11.592;2023-05-10T00:49:17;3.83;;;1.40;;
2620;SDS011;1320;48.128;11.592;2023-05-10T00:51:44;3.07;;;1.20;;
2620;SDS011;1320;48.128;11.592;2023-05-10T00:54:11;3.90;;;1.70;;
2620;SDS011;1320;48.128;11.592;2023-05-10T00:56:38;2.93;;;1.30;;
2620;SDS011;1320;48.128;11.592;2023-05-10T00:59:05;3.37;;;1.30;;
2620;SDS011;1320;48.128;11.592;2023-05-10T01:01:31;3.47;;;1.20;;
2620;SDS011;1320;48.128;11.592;2023-05-10T01:03:57;3.93;;;1.53;;
2620;SDS011;1320;48.128;11.592;2023-05-10T01:06:23;3.40;;;1.40;;
2620;SDS011;1320;48.128;11.592;2023-05-10T01:08:49;2.73;;;1.10;;
2620;SDS011;1320;48.128;11.592;2023-05-10T01:11:15;2.67;;;1.10;;
2620;SDS011;1320;48.128;11.592;2023-05-10T01:13:41;3.27;;;1.13;;
2620;SDS011;1320;48.128;11.592;2023-05-10T01:16:11;3.07;;;1.20;;
2620;SDS011;1320;48.128;11.592;2023-05-10T01:18:40;2.90;;;1.20;;
2620;SDS011;1320;48.128;11.592;2023-05-10T01:32:45;3.23;;;1.30;;
2620;SDS011;1320;48.128;11.592;2023-05-10T01:38:19;3.80;;;1.07;;
2620;SDS011;1320;48.128;11.592;2023-05-10T01:43:22;3.50;;;1.10;;
2620;SDS011;1320;48.128;11.592;2023-05-10T01:48:29;4.07;;;1.20;;
2620;SDS011;1320;48.128;11.592;2023-05-10T01:50:56;3.00;;;1.20;;
2620;SDS011;1320;48.128;11.592;2023-05-10T01:53:23;3.03;;;1.17;;
2620;SDS011;1320;48.128;11.592;2023-05-10T01:55:50;5.53;;;1.20;;
2620;SDS011;1320;48.128;11.592;2023-05-10T01:58:20;4.50;;;1.40;;
2620;SDS011;1320;48.128;11.592;2023-05-10T02:00:49;3.50;;;1.00;;
2620;SDS011;1320;48.128;11.592;2023-05-10T02:03:15;3.53;;;1.50;;
2620;SDS011;1320;48.128;11.592;2023-05-10T02:05:43;3.10;;;1.20;;
2620;SDS011;1320;48.128;11.592;2023-05-10T02:08:11;2.60;;;1.10;;
2620;SDS011;1320;48.128;11.592;2023-05-10T02:10:38;2.77;;;1.10;;
2620;SDS011;1320;48.128;11.592;2023-05-10T02:13:05;2.63;;;1.10;;
2620;SDS011;1320;48.128;11.592;2023-05-10T02:15:32;3.63;;;1.20;;
2620;SDS011;1320;48.128;11.592;2023-05-10T02:17:59;3.23;;;1.00;;
2620;SDS011;1320;48.128;11.592;2023-05-10T02:20:27;3.10;;;1.23;;
2620;SDS011;1320;48.128;11.592;2023-05-10T02:22:53;2.93;;;1.30;;
2620;SDS011;1320;48.128;11.592;2023-05-10T02:25:21;2.70;;;0.90;;
2620;SDS011;1320;48.128;11.592;2023-05-10T02:27:48;3.47;;;1.33;;
2620;SDS011;1320;48.128;11.592;2023-05-10T02:30:15;2.90;;;1.17;;
2620;SDS011;1320;48.128;11.592;2023-05-10T02:32:41;4.63;;;1.10;;
2620;SDS011;1320;48.128;11.592;2023-05-10T02:35:08;2.90;;;1.30;;
2620;SDS011;1320;48.128;11.592;2023-05-10T02:37:35;3.27;;;1.20;;
2620;SDS011;1320;48.128;11.592;2023-05-10T02:40:02;3.27;;;1.40;;
2620;SDS011;1320;48.128;11.592;2023-05-10T02:42:31;3.07;;;1.10;;
2620;SDS011;1320;48.128;11.592;2023-05-10T02:45:00;2.83;;;1.20;;
2620;SDS011;1320;48.128;11.592;2023-05-10T02:47:28;3.00;;;1.27;;
2620;SDS011;1320;48.128;11.592;2023-05-10T02:49:54;4.73;;;1.20;;
2620;SDS011;1320;48.128;11.592;2023-05-10T02:52:25;3.93;;;1.10;;
2620;SDS011;1320;48.128;11.592;2023-05-10T02:54:55;3.27;;;1.20;;
2620;SDS011;1320;48.128;11.592;2023-05-10T02:57:27;3.30;;;1.30;;
2620;SDS011;1320;48.128;11.592;2023-05-10T02:59:56;5.47;;;1.10;;
2620;SDS011;1320;48.128;11.592;2023-05-10T03:02:22;3.30;;;1.10;;
2620;SDS011;1320;48.128;11.592;2023-05-10T03:04:48;2.87;;;1.50;;
2620;SDS011;1320;48.128;11.592;2023-05-10T03:07:13;2.83;;;1.10;;
2620;SDS011;1320;48.128;11.592;2023-05-10T03:09:39;5.10;;;1.30;;
2620;SDS011;1320;48.128;11.592;2023-05-10T03:15:06;3.57;;;1.40;;
2620;SDS011;1320;48.128;11.592;2023-05-10T03:18:29;8.10;;;1.27;;
2620;SDS011;1320;48.128;11.592;2023-05-10T03:20:48;3.23;;;1.30;;
2620;SDS011;1320;48.128;11.592;2023-05-10T03:25:51;4.30;;;1.10;;
2620;SDS011;1320;48.128;11.592;2023-05-10T03:28:18;3.57;;;1.23;;
2620;SDS011;1320;48.128;11.592;2023-05-10T03:30:45;2.87;;;1.00;;
2620;SDS011;1320;48.128;11.592;2023-05-10T03:33:12;3.33;;;1.03;;
2620;SDS011;1320;48.128;11.592;2023-05-10T03:35:38;2.70;;;1.00;;
2620;SDS011;1320;48.128;11.592;2023-05-10T03:38:04;2.87;;;1.10;;
2620;SDS011;1320;48.128;11.592;2023-05-10T03:40:30;2.67;;;0.90;;
2620;SDS011;1320;48.128;11.592;2023-05-10T03:42:57;2.50;;;0.97;;
2620;SDS011;1320;48.128;11.592;2023-05-10T03:45:26;3.40;;;1.20;;
2620;SDS011;1320;48.128;11.592;2023-05-10T03:47:52;3.73;;;1.10;;
2620;SDS011;1320;48.128;11.592;2023-05-10T03:50:18;2.87;;;0.87;;
2620;SDS011;1320;48.128;11.592;2023-05-10T03:52:44;3.13;;;1.37;;
2620;SDS011;1320;48.128;11.592;2023-05-10T03:55:11;2.90;;;1.00;;
2620;SDS011;1320;48.128;11.592;2023-05-10T03:57:37;3.53;;;0.90;;
2620;SDS011;1320;48.128;11.592;2023-05-10T04:00:03;2.70;;;0.90;;
2620;SDS011;1320;48.128;11.592;2023-05-10T04:02:29;2.80;;;0.83;;
2620;SDS011;1320;48.128;11.592;2023-05-10T04:04:55;4.70;;;1.10;;
2620;SDS011;1320;48.128;11.592;2023-05-10T04:07:21;2.90;;;1.00;;
2620;SDS011;1320;48.128;11.592;2023-05-10T04:09:47;2.50;;;0.90;;
2620;SDS011;1320;48.128;11.592;2023-05-10T04:12:12;2.70;;;1.00;;
2620;SDS011;1320;48.128;11.592;2023-05-10T04:14:38;2.77;;;1.00;;
2620;SDS011;1320;48.128;11.592;2023-05-10T04:17:04;2.57;;;0.90;;
2620;SDS011;1320;48.128;11.592;2023-05-10T04:19:30;3.57;;;0.90;;
2620;SDS011;1320;48.128;11.592;2023-05-10T04:21:56;2.70;;;0.80;;
2620;SDS011;1320;48.128;11.592;2023-05-10T04:24:22;3.90;;;0.90;;
2620;SDS011;1320;48.128;11.592;2023-05-10T04:26:48;2.57;;;1.07;;
2620;SDS011;1320;48.128;11.592;2023-05-10T04:29:14;2.60;;;0.80;;
2620;SDS011;1320;48.128;11.592;2023-05-10T04:31:39;3.00;;;1.10;;
2620;SDS011;1320;48.128;11.592;2023-05-10T04:34:05;2.80;;;0.90;;
2620;SDS011;1320;48.128;11.592;2023-05-10T04:36:30;3.07;;;1.00;;
2620;SDS011;1320;48.128;11.592;2023-05-10T04:38:58;3.13;;;1.20;;
2620;SDS011;1320;48.128;11.592;2023-05-10T04:41:24;2.50;;;0.80;;
2620;SDS011;1320;48.128;11.592;2023-05-10T04:43:50;2.80;;;0.90;;
2620;SDS011;1320;48.128;11.592;2023-05-10T04:46:16;2.63;;;0.87;;
2620;SDS011;1320;48.128;11.592;2023-05-10T04:48:41;3.10;;;1.10;;
2620;SDS011;1320;48.128;11.592;2023-05-10T04:51:07;3.17;;;1.27;;
2620;SDS011;1320;48.128;11.592;2023-05-10T04:53:33;3.00;;;1.10;;
2620;SDS011;1320;48.128;11.592;2023-05-10T04:55:58;3.00;;;1.10;;
2620;SDS011;1320;48.128;11.592;2023-05-10T04:58:24;2.60;;;0.90;;
2620;SDS011;1320;48.128;11.592;2023-05-10T05:00:50;2.60;;;0.83;;
2620;SDS011;1320;48.128;11.592;2023-05-10T05:03:15;2.70;;;1.00;;
2620;SDS011;1320;48.128;11.592;2023-05-10T05:05:41;4.23;;;1.50;;
2620;SDS011;1320;48.128;11.592;2023-05-10T05:08:06;3.53;;;2.63;;
2620;SDS011;1320;48.128;11.592;2023-05-10T05:10:32;3.00;;;1.00;;
2620;SDS011;1320;48.128;11.592;2023-05-10T05:12:58;2.80;;;1.00;;
2620;SDS011;1320;48.128;11.592;2023-05-10T05:15:23;2.77;;;0.93;;
2620;SDS011;1320;48.128;11.592;2023-05-10T05:17:49;2.70;;;1.00;;
2620;SDS011;1320;48.128;11.592;2023-05-10T05:20:15;4.83;;;1.07;;
2620;SDS011;1320;48.128;11.592;2023-05-10T05:22:41;3.57;;;1.20;;
2620;SDS011;1320;48.128;11.592;2023-05-10T05:25:06;2.87;;;1.00;;
2620;SDS011;1320;48.128;11.592;2023-05-10T05:27:32;2.80;;;0.87;;
2620;SDS011;1320;48.128;11.592;2023-05-10T05:29:58;3.00;;;1.00;;
2620;SDS011;1320;48.128;11.592;2023-05-10T05:32:24;2.73;;;0.90;;
2620;SDS011;1320;48.128;11.592;2023-05-10T05:34:50;2.73;;;0.77;;
2620;SDS011;1320;48.128;11.592;2023-05-10T05:37:16;6.10;;;0.93;;
2620;SDS011;1320;48.128;11.592;2023-05-10T05:39:44;2.93;;;0.90;;
2620;SDS011;1320;48.128;11.592;2023-05-10T05:42:10;2.80;;;1.17;;
2620;SDS011;1320;48.128;11.592;2023-05-10T05:44:37;3.20;;;1.30;;
2620;SDS011;1320;48.128;11.592;2023-05-10T05:47:03;3.63;;;1.53;;
2620;SDS011;1320;48.128;11.592;2023-05-10T05:49:29;3.50;;;1.47;;
2620;SDS011;1320;48.128;11.592;2023-05-10T05:51:58;3.13;;;1.00;;
2620;SDS011;1320;48.128;11.592;2023-05-10T05:54:28;2.93;;;1.00;;
2620;SDS011;1320;48.128;11.592;2023-05-10T05:56:55;4.07;;;1.17;;
2620;SDS011;1320;48.128;11.592;2023-05-10T05:59:21;2.93;;;1.00;;
2620;SDS011;1320;48.128;11.592;2023-05-10T06:01:47;2.93;;;0.80;;
2620;SDS011;1320;48.128;11.592;2023-05-10T06:04:13;3.23;;;1.13;;
2620;SDS011;1320;48.128;11.592;2023-05-10T06:06:39;4.40;;;1.00;;
2620;SDS011;1320;48.128;11.592;2023-05-10T06:09:05;7.80;;;2.33;;
2620;SDS011;1320;48.128;11.592;2023-05-10T06:11:30;3.37;;;1.50;;
2620;SDS011;1320;48.128;11.592;2023-05-10T06:13:57;4.50;;;1.20;;
2620;SDS011;1320;48.128;11.592;2023-05-10T06:16:23;3.43;;;1.50;;
2620;SDS011;1320;48.128;11.592;2023-05-10T06:18:49;5.00;;;1.40;;
2620;SDS011;1320;48.128;11.592;2023-05-10T06:21:14;3.10;;;1.00;;
2620;SDS011;1320;48.128;11.592;2023-05-10T06:23:42;3.30;;;1.20;;
2620;SDS011;1320;48.128;11.592;2023-05-10T06:26:07;2.87;;;1.00;;
2620;SDS011;1320;48.128;11.592;2023-05-10T06:28:33;4.37;;;2.00;;
2620;SDS011;1320;48.128;11.592;2023-05-10T06:30:59;3.30;;;1.10;;
2620;SDS011;1320;48.128;11.592;2023-05-10T06:33:25;5.73;;;1.60;;
2620;SDS011;1320;48.128;11.592;2023-05-10T06:35:51;8.50;;;2.20;;
2620;SDS011;1320;48.128;11.592;2023-05-10T06:38:16;3.60;;;1.40;;
2620;SDS011;1320;48.128;11.592;2023-05-10T06:40:42;5.53;;;1.47;;
2620;SDS011;1320;48.128;11.592;2023-05-10T06:43:08;5.73;;;1.50;;
2620;SDS011;1320;48.128;11.592;2023-05-10T06:45:34;3.53;;;1.43;;
2620;SDS011;1320;48.128;11.592;2023-05-10T06:48:00;3.67;;;1.43;;
2620;SDS011;1320;48.128;11.592;2023-05-10T06:50:26;6.10;;;1.40;;
2620;SDS011;1320;48.128;11.592;2023-05-10T06:52:51;4.13;;;1.30;;
2620;SDS011;1320;48.128;11.592;2023-05-10T06:55:17;3.10;;;1.10;;
2620;SDS011;1320;48.128;11.592;2023-05-10T06:57:42;4.03;;;1.90;;
2620;SDS011;1320;48.128;11.592;2023-05-10T07:00:08;4.00;;;1.50;;
2620;SDS011;1320;48.128;11.592;2023-05-10T07:02:37;3.40;;;1.43;;
2620;SDS011;1320;48.128;11.592;2023-05-10T07:05:03;4.50;;;1.40;;
2620;SDS011;1320;48.128;11.592;2023-05-10T07:07:29;3.93;;;1.67;;
2620;SDS011;1320;48.128;11.592;2023-05-10T07:09:55;3.70;;;1.50;;
2620;SDS011;1320;48.128;11.592;2023-05-10T07:12:22;5.40;;;1.70;;
2620;SDS011;1320;48.128;11.592;2023-05-10T07:14:48;4.00;;;1.53;;
2620;SDS011;1320;48.128;11.592;2023-05-10T07:17:14;5.43;;;1.20;;
2620;SDS011;1320;48.128;11.592;2023-05-10T07:19:39;4.03;;;1.60;;
2620;SDS011;1320;48.128;11.592;2023-05-10T07:22:05;4.70;;;1.80;;
2620;SDS011;1320;48.128;11.592;2023-05-10T07:24:31;3.90;;;1.10;;
2620;SDS011;1320;48.128;11.592;2023-05-10T07:26:58;4.50;;;1.57;;
2620;SDS011;1320;48.128;11.592;2023-05-10T07:29:23;6.73;;;2.17;;
2620;SDS011;1320;48.128;11.592;2023-05-10T07:31:49;3.40;;;1.47;;
2620;SDS011;1320;48.128;11.592;2023-05-10T07:34:15;3.83;;;1.70;;
2620;SDS011;1320;48.128;11.592;2023-05-10T07:36:40;3.23;;;1.70;;
2620;SDS011;1320;48.128;11.592;2023-05-10T07:39:06;3.13;;;1.43;;
2620;SDS011;1320;48.128;11.592;2023-05-10T07:41:32;4.67;;;2.20;;
2620;SDS011;1320;48.128;11.592;2023-05-10T07:43:58;3.30;;;1.70;;
2620;SDS011;1320;48.128;11.592;2023-05-10T07:46:23;5.00;;;1.63;;
2620;SDS011;1320;48.128;11.592;2023-05-10T07:48:49;2.90;;;1.20;;
2620;SDS011;1320;48.128;11.592;2023-05-10T07:51:15;9.07;;;2.50;;
2620;SDS011;1320;48.128;11.592;2023-05-10T07:53:40;3.47;;;1.47;;
2620;SDS011;1320;48.128;11.592;2023-05-10T07:56:26;5.03;;;1.37;;
2620;SDS011;1320;48.128;11.592;2023-05-10T07:59:03;3.20;;;1.50;;
2620;SDS011;1320;48.128;11.592;2023-05-10T08:01:30;2.80;;;1.20;;
2620;SDS011;1320;48.128;11.592;2023-05-10T08:03:57;2.60;;;1.20;;
2620;SDS011;1320;48.128;11.592;2023-05-10T08:06:23;3.10;;;1.23;;
2620;SDS011;1320;48.128;11.592;2023-05-10T08:08:48;3.40;;;1.50;;
2620;SDS011;1320;48.128;11.592;2023-05-10T08:11:18;3.17;;;1.40;;
2620;SDS011;1320;48.128;11.592;2023-05-10T08:13:45;2.90;;;1.33;;
2620;SDS011;1320;48.128;11.592;2023-05-10T08:16:12;3.70;;;1.30;;
2620;SDS011;1320;48.128;11.592;2023-05-10T08:18:37;3.70;;;1.60;;
2620;SDS011;1320;48.128;11.592;2023-05-10T08:21:03;3.43;;;1.30;;
2620;SDS011;1320;48.128;11.592;2023-05-10T08:23:30;3.17;;;1.00;;
2620;SDS011;1320;48.128;11.592;2023-05-10T08:25:55;5.97;;;1.50;;
2620;SDS011;1320;48.128;11.592;2023-05-10T08:28:21;2.70;;;0.97;;
2620;SDS011;1320;48.128;11.592;2023-05-10T08:30:47;3.27;;;1.40;;
2620;SDS011;1320;48.128;11.592;2023-05-10T08:33:13;3.00;;;1.10;;
2620;SDS011;1320;48.128;11.592;2023-05-10T08:35:38;3.00;;;1.00;;
2620;SDS011;1320;48.128;11.592;2023-05-10T08:38:04;2.93;;;1.30;;
2620;SDS011;1320;48.128;11.592;2023-05-10T08:40:29;3.20;;;1.30;;
2620;SDS011;1320;48.128;11.592;2023-05-10T08:43:06;3.60;;;1.53;;
2620;SDS011;1320;48.128;11.592;2023-05-10T08:45:36;3.10;;;1.13;;
2620;SDS011;1320;48.128;11.592;2023-05-10T08:48:04;3.63;;;1.90;;
2620;SDS011;1320;48.128;11.592;2023-05-10T08:50:31;9.80;;;1.43;;
2620;SDS011;1320;48.128;11.592;2023-05-10T08:52:59;4.87;;;1.43;;
2620;SDS011;1320;48.128;11.592;2023-05-10T08:55:26;2.90;;;1.20;;
2620;SDS011;1320;48.128;11.592;2023-05-10T08:57:53;3.50;;;1.20;;
2620;SDS011;1320;48.128;11.592;2023-05-10T09:00:19;3.00;;;1.40;;
2620;SDS011;1320;48.128;11.592;2023-05-10T09:02:45;3.27;;;1.30;;
2620;SDS011;1320;48.128;11.592;2023-05-10T09:05:11;3.47;;;1.40;;
2620;SDS011;1320;48.128;11.592;2023-05-10T09:07:37;3.33;;;1.40;;
2620;SDS011;1320;48.128;11.592;2023-05-10T09:10:04;3.30;;;1.47;;
2620;SDS011;1320;48.128;11.592;2023-05-10T09:12:30;4.80;;;1.40;;
2620;SDS011;1320;48.128;11.592;2023-05-10T09:14:56;2.90;;;1.33;;
2620;SDS011;1320;48.128;11.592;2023-05-10T09:17:24;3.90;;;1.80;;
2620;SDS011;1320;48.128;11.592;2023-05-10T09:20:01;3.73;;;1.93;;
2620;SDS011;1320;48.128;11.592;2023-05-10T09:22:29;5.17;;;1.60;;
2620;SDS011;1320;48.128;11.592;2023-05-10T09:27:36;3.60;;;1.70;;
2620;SDS011;1320;48.128;11.592;2023-05-10T09:30:03;3.10;;;1.53;;
2620;SDS011;1320;48.128;11.592;2023-05-10T09:35:26;5.97;;;1.60;;
2620;SDS011;1320;48.128;11.592;2023-05-10T09:37:53;3.50;;;2.13;;
2620;SDS011;1320;48.128;11.592;2023-05-10T09:43:20;2.97;;;1.23;;
2620;SDS011;1320;48.128;11.592;2023-05-10T09:45:39;3.67;;;1.20;;
2620;SDS011;1320;48.128;11.592;2023-05-10T09:48:06;3.57;;;1.57;;
2620;SDS011;1320;48.128;11.592;2023-05-10T09:50:32;3.10;;;1.20;;
2620;SDS011;1320;48.128;11.592;2023-05-10T09:53:00;4.83;;;2.00;;
2620;SDS011;1320;48.128;11.592;2023-05-10T09:55:41;4.37;;;1.90;;
2620;SDS011;1320;48.128;11.592;2023-05-10T09:58:11;4.00;;;1.33;;
2620;SDS011;1320;48.128;11.592;2023-05-10T10:00:39;3.40;;;1.27;;
2620;SDS011;1320;48.128;11.592;2023-05-10T10:03:07;3.70;;;1.40;;
2620;SDS011;1320;48.128;11.592;2023-05-10T10:05:39;3.63;;;1.63;;
2620;SDS011;1320;48.128;11.592;2023-05-10T10:08:06;5.70;;;1.60;;
2620;SDS011;1320;48.128;11.592;2023-05-10T10:10:32;5.40;;;1.70;;
2620;SDS011;1320;48.128;11.592;2023-05-10T10:12:58;4.73;;;1.90;;
2620;SDS011;1320;48.128;11.592;2023-05-10T10:15:25;3.10;;;1.33;;
2620;SDS011;1320;48.128;11.592;2023-05-10T10:17:51;3.57;;;1.60;;
2620;SDS011;1320;48.128;11.592;2023-05-10T10:20:18;4.53;;;1.50;;
2620;SDS011;1320;48.128;11.592;2023-05-10T10:22:46;2.80;;;1.30;;
2620;SDS011;1320;48.128;11.592;2023-05-10T10:25:15;3.73;;;1.53;;
2620;SDS011;1320;48.128;11.592;2023-05-10T10:27:45;3.00;;;1.40;;
2620;SDS011;1320;48.128;11.592;2023-05-10T10:35:44;3.37;;;1.27;;
2620;SDS011;1320;48.128;11.592;2023-05-10T10:38:14;4.87;;;1.50;;
2620;SDS011;1320;48.128;11.592;2023-05-10T10:40:41;3.83;;;1.40;;
2620;SDS011;1320;48.128;11.592;2023-05-10T10:43:23;3.50;;;1.50;;
2620;SDS011;1320;48.128;11.592;2023-05-10T10:48:49;3.80;;;1.40;;
2620;SDS011;1320;48.128;11.592;2023-05-10T10:51:17;3.43;;;1.73;;
2620;SDS011;1320;48.128;11.592;2023-05-10T10:53:43;3.47;;;1.43;;
2620;SDS011;1320;48.128;11.592;2023-05-10T10:56:09;9.17;;;1.50;;
2620;SDS011;1320;48.128;11.592;2023-05-10T10:58:38;3.40;;;1.40;;
2620;SDS011;1320;48.128;11.592;2023-05-10T11:03:41;3.40;;;1.40;;
2620;SDS011;1320;48.128;11.592;2023-05-10T11:06:28;4.20;;;1.50;;
2620;SDS011;1320;48.128;11.592;2023-05-10T11:08:58;3.53;;;1.50;;
2620;SDS011;1320;48.128;11.592;2023-05-10T11:11:35;3.80;;;1.60;;
2620;SDS011;1320;48.128;11.592;2023-05-10T11:14:05;3.83;;;1.70;;
2620;SDS011;1320;48.128;11.592;2023-05-10T11:16:44;6.43;;;2.50;;
2620;SDS011;1320;48.128;11.592;2023-05-10T11:19:10;5.50;;;1.73;;
2620;SDS011;1320;48.128;11.592;2023-05-10T11:21:50;4.90;;;1.73;;
2620;SDS011;1320;48.128;11.592;2023-05-10T11:24:36;3.87;;;1.67;;
2620;SDS011;1320;48.128;11.592;2023-05-10T11:27:02;3.97;;;2.13;;
2620;SDS011;1320;48.128;11.592;2023-05-10T11:29:28;6.77;;;2.27;;
2620;SDS011;1320;48.128;11.592;2023-05-10T11:31:53;3.83;;;2.23;;
2620;SDS011;1320;48.128;11.592;2023-05-10T11:34:31;5.27;;;1.53;;
2620;SDS011;1320;48.128;11.592;2023-05-10T11:37:00;3.40;;;1.60;;
2620;SDS011;1320;48.128;11.592;2023-05-10T11:39:26;4.00;;;1.53;;
2620;SDS011;1320;48.128;11.592;2023-05-10T11:41:54;3.40;;;1.60;;
2620;SDS011;1320;48.128;11.592;2023-05-10T11:44:20;4.63;;;1.60;;
2620;SDS011;1320;48.128;11.592;2023-05-10T11:46:45;3.57;;;1.80;;
2620;SDS011;1320;48.128;11.592;2023-05-10T11:49:11;3.27;;;2.07;;
2620;SDS011;1320;48.128;11.592;2023-05-10T11:51:38;6.27;;;3.10;;
2620;SDS011;1320;48.128;11.592;2023-05-10T11:54:09;6.73;;;2.43;;
2620;SDS011;1320;48.128;11.592;2023-05-10T11:56:36;5.50;;;2.67;;
2620;SDS011;1320;48.128;11.592;2023-05-10T11:59:03;5.83;;;3.03;;
2620;SDS011;1320;48.128;11.592;2023-05-10T12:01:29;5.10;;;2.77;;
2620;SDS011;1320;48.128;11.592;2023-05-10T12:03:56;4.67;;;2.70;;
2620;SDS011;1320;48.128;11.592;2023-05-10T12:06:26;8.90;;;3.03;;
2620;SDS011;1320;48.128;11.592;2023-05-10T12:08:54;5.43;;;2.23;;
2620;SDS011;1320;48.128;11.592;2023-05-10T12:11:20;3.83;;;1.83;;
2620;SDS011;1320;48.128;11.592;2023-05-10T12:13:49;4.77;;;2.30;;
2620;SDS011;1320;48.128;11.592;2023-05-10T12:16:16;6.93;;;2.40;;
2620;SDS011;1320;48.128;11.592;2023-05-10T12:18:43;3.50;;;1.37;;
2620;SDS011;1320;48.128;11.592;2023-05-10T12:21:13;3.08;;;2.10;;
2620;SDS011;1320;48.128;11.592;2023-05-10T12:23:40;4.30;;;1.40;;
2620;SDS011;1320;48.128;11.592;2023-05-10T12:26:06;11.63;;;2.50;;
2620;SDS011;1320;48.128;11.592;2023-05-10T12:28:34;3.87;;;1.70;;
2620;SDS011;1320;48.128;11.592;2023-05-10T12:31:00;4.80;;;1.67;;
2620;SDS011;1320;48.128;11.592;2023-05-10T12:33:26;4.57;;;2.00;;
2620;SDS011;1320;48.128;11.592;2023-05-10T12:36:00;4.70;;;2.00;;
2620;SDS011;1320;48.128;11.592;2023-05-10T12:38:35;5.73;;;2.33;;
2620;SDS011;1320;48.128;11.592;2023-05-10T12:41:03;2.80;;;1.30;;
2620;SDS011;1320;48.128;11.592;2023-05-10T12:43:31;5.27;;;1.77;;
2620;SDS011;1320;48.128;11.592;2023-05-10T12:45:57;4.20;;;1.90;;
2620;SDS011;1320;48.128;11.592;2023-05-10T12:48:23;6.80;;;1.60;;
2620;SDS011;1320;48.128;11.592;2023-05-10T12:50:49;4.03;;;2.27;;
2620;SDS011;1320;48.128;11.592;2023-05-10T12:53:15;5.83;;;2.53;;
2620;SDS011;1320;48.128;11.592;2023-05-10T12:55:42;8.00;;;2.53;;
2620;SDS011;1320;48.128;11.592;2023-05-10T12:58:08;7.50;;;2.20;;
2620;SDS011;1320;48.128;11.592;2023-05-10T13:00:33;4.80;;;1.83;;
2620;SDS011;1320;48.128;11.592;2023-05-10T13:02:59;3.07;;;1.67;;
2620;SDS011;1320;48.128;11.592;2023-05-10T13:05:25;6.83;;;2.20;;
2620;SDS011;1320;48.128;11.592;2023-05-10T13:07:51;3.80;;;1.90;;
2620;SDS011;1320;48.128;11.592;2023-05-10T13:10:16;5.00;;;1.93;;
2620;SDS011;1320;48.128;11.592;2023-05-10T13:30:44;5.20;;;1.87;;
2620;SDS011;1320;48.128;11.592;2023-05-10T16:04:25;6.00;;;2.90;;
2620;SDS011;1320;48.128;11.592;2023-05-10T16:10:49;6.57;;;3.03;;
2620;SDS011;1320;48.128;11.592;2023-05-10T19:59:02;6.03;;;3.73;;
2620;SDS011;1320;48.128;11.592;2023-05-10T20:02:13;8.53;;;4.37;;
2620;SDS011;1320;48.128;11.592;2023-05-10T20:04:39;7.00;;;3.30;;
2620;SDS011;1320;48.128;11.592;2023-05-10T20:07:04;5.00;;;2.20;;
2620;SDS011;1320;48.128;11.592;2023-05-10T20:09:30;5.13;;;2.40;;
2620;SDS011;1320;48.128;11.592;2023-05-10T20:11:56;6.80;;;2.63;;
2620;SDS011;1320;48.128;11.592;2023-05-10T20:14:21;4.60;;;2.10;;
2620;SDS011;1320;48.128;11.592;2023-05-10T20:16:47;3.90;;;2.13;;
2620;SDS011;1320;48.128;11.592;2023-05-10T20:19:13;5.33;;;2.20;;
2620;SDS011;1320;48.128;11.592;2023-05-10T20:21:38;4.60;;;2.13;;
2620;SDS011;1320;48.128;11.592;2023-05-10T20:24:05;4.40;;;2.03;;
2620;SDS011;1320;48.128;11.592;2023-05-10T20:26:31;4.10;;;2.13;;
2620;SDS011;1320;48.128;11.592;2023-05-10T20:28:57;4.93;;;2.20;;
2620;SDS011;1320;48.128;11.592;2023-05-10T20:31:22;4.03;;;1.90;;
2620;SDS011;1320;48.128;11.592;2023-05-10T20:33:48;4.83;;;2.00;;
2620;SDS011;1320;48.128;11.592;2023-05-10T20:36:14;5.67;;;2.57;;
2620;SDS011;1320;48.128;11.592;2023-05-10T20:38:40;4.80;;;2.40;;
2620;SDS011;1320;48.128;11.592;2023-05-10T20:41:05;5.63;;;1.90;;
2620;SDS011;1320;48.128;11.592;2023-05-10T20:43:31;3.57;;;1.70;;
2620;SDS011;1320;48.128;11.592;2023-05-10T20:45:57;4.27;;;1.83;;
2620;SDS011;1320;48.128;11.592;2023-05-10T20:48:29;4.03;;;2.00;;
2620;SDS011;1320;48.128;11.592;2023-05-10T20:50:56;4.70;;;2.40;;
2620;SDS011;1320;48.128;11.592;2023-05-10T20:53:22;3.80;;;1.90;;
2620;SDS011;1320;48.128;11.592;2023-05-10T20:55:48;4.63;;;2.23;;
2620;SDS011;1320;48.128;11.592;2023-05-10T20:58:13;5.07;;;2.67;;
2620;SDS011;1320;48.128;11.592;2023-05-10T21:00:39;4.17;;;1.83;;
2620;SDS011;1320;48.128;11.592;2023-05-10T21:03:05;4.93;;;2.23;;
2620;SDS011;1320;48.128;11.592;2023-05-10T21:05:30;4.40;;;1.97;;
2620;SDS011;1320;48.128;11.592;2023-05-10T21:07:56;4.40;;;1.93;;
2620;SDS011;1320;48.128;11.592;2023-05-10T21:10:22;4.70;;;2.20;;
2620;SDS011;1320;48.128;11.592;2023-05-10T21:12:48;6.23;;;2.23;;
2620;SDS011;1320;48.128;11.592;2023-05-10T21:15:14;3.97;;;1.90;;
2620;SDS011;1320;48.128;11.592;2023-05-10T21:17:41;4.87;;;2.30;;
2620;SDS011;1320;48.128;11.592;2023-05-10T21:20:08;5.03;;;1.87;;
2620;SDS011;1320;48.128;11.592;2023-05-10T21:22:35;4.37;;;2.10;;
2620;SDS011;1320;48.128;11.592;2023-05-10T21:25:00;7.77;;;3.00;;
2620;SDS011;1320;48.128;11.592;2023-05-10T21:27:26;4.27;;;1.97;;
2620;SDS011;1320;48.128;11.592;2023-05-10T21:29:51;4.60;;;1.80;;
2620;SDS011;1320;48.128;11.592;2023-05-10T21:32:17;4.17;;;1.47;;
2620;SDS011;1320;48.128;11.592;2023-05-10T21:34:43;3.73;;;1.33;;
2620;SDS011;1320;48.128;11.592;2023-05-10T21:37:08;3.60;;;1.60;;
2620;SDS011;1320;48.128;11.592;2023-05-10T21:39:34;5.20;;;1.70;;
2620;SDS011;1320;48.128;11.592;2023-05-10T21:42:00;3.63;;;1.60;;
2620;SDS011;1320;48.128;11.592;2023-05-10T21:44:27;5.50;;;1.80;;
2620;SDS011;1320;48.128;11.592;2023-05-10T21:46:53;5.20;;;1.53;;
2620;SDS011;1320;48.128;11.592;2023-05-10T21:49:18;5.80;;;1.87;;
2620;SDS011;1320;48.128;11.592;2023-05-10T21:51:44;4.60;;;1.83;;
2620;SDS011;1320;48.128;11.592;2023-05-10T21:54:10;4.93;;;1.93;;
2620;SDS011;1320;48.128;11.592;2023-05-10T21:56:35;3.87;;;1.67;;
2620;SDS011;1320;48.128;11.592;2023-05-10T21:59:01;3.83;;;2.07;;
2620;SDS011;1320;48.128;11.592;2023-05-10T22:01:27;3.60;;;1.67;;
2620;SDS011;1320;48.128;11.592;2023-05-10T22:03:53;3.57;;;1.67;;
2620;SDS011;1320;48.128;11.592;2023-05-10T22:06:18;8.43;;;1.73;;
2620;SDS011;1320;48.128;11.592;2023-05-10T22:08:44;4.10;;;2.23;;
2620;SDS011;1320;48.128;11.592;2023-05-10T22:11:09;4.67;;;1.90;;
2620;SDS011;1320;48.128;11.592;2023-05-10T22:13:35;4.70;;;1.37;;
2620;SDS011;1320;48.128;11.592;2023-05-10T22:16:01;5.53;;;2.13;;
2620;SDS011;1320;48.128;11.592;2023-05-10T22:18:26;4.70;;;2.10;;
2620;SDS011;1320;48.128;11.592;2023-05-10T22:20:52;5.40;;;1.63;;
2620;SDS011;1320;48.128;11.592;2023-05-10T22:23:18;4.90;;;1.60;;